createdAt,value
2018-08-13T00:00:50.379Z,24.88
2018-08-13T00:15:51.754Z,24.86
2018-08-13T00:30:51.942Z,24.77
2018-08-13T00:45:51.196Z,24.70
2018-08-13T01:00:51.256Z,24.67
2018-08-13T01:15:50.686Z,24.58
2018-08-13T01:30:50.096Z,24.51
2018-08-13T01:45:50.045Z,24.48
2018-08-13T02:15:51.513Z,24.40
2018-08-13T02:30:50.495Z,24.34
2018-08-13T02:45:50.415Z,24.36
2018-08-13T03:00:50.441Z,24.28
2018-08-13T03:15:50.935Z,24.31
2018-08-13T03:30:51.396Z,24.39
2018-08-13T03:45:50.859Z,24.36
2018-08-13T04:00:51.273Z,24.47
2018-08-13T04:15:50.444Z,24.79
2018-08-13T04:30:52.388Z,25.15
2018-08-13T04:45:50.405Z,25.56
2018-08-13T05:00:53.285Z,26.02
2018-08-13T05:15:50.827Z,26.34
2018-08-13T05:30:50.951Z,26.65
2018-08-13T05:45:51.005Z,27.08
2018-08-13T06:00:50.791Z,27.16
2018-08-13T06:15:56.718Z,27.86
2018-08-13T06:30:53.121Z,28.23
2018-08-13T06:45:51.076Z,28.52
2018-08-13T07:00:51.144Z,29.22
2018-08-13T07:15:52.625Z,29.90
2018-08-13T07:30:50.619Z,30.52
2018-08-13T07:45:50.638Z,31.13
2018-08-13T08:00:49.920Z,31.45
2018-08-13T08:15:51.004Z,31.66
2018-08-13T08:30:52.875Z,32.14
2018-08-13T08:45:53.001Z,32.60
2018-08-13T09:00:50.806Z,32.87
2018-08-13T09:15:51.746Z,32.72
2018-08-13T09:45:52.274Z,32.56
2018-08-13T10:00:55.348Z,32.62
2018-08-13T10:15:50.848Z,32.39
2018-08-13T10:30:50.622Z,33.04
2018-08-13T10:45:51.519Z,33.29
2018-08-13T11:00:50.154Z,33.12
2018-08-13T11:15:51.032Z,32.90
2018-08-13T11:30:51.172Z,32.77
2018-08-13T11:45:51.014Z,32.73
2018-08-13T12:00:50.975Z,32.68
2018-08-13T12:15:50.410Z,32.24
2018-08-13T12:30:50.882Z,31.81
2018-08-13T12:45:50.344Z,31.10
2018-08-13T13:00:58.272Z,30.77
2018-08-13T13:15:52.772Z,30.29
2018-08-13T13:30:50.756Z,29.84
2018-08-13T13:45:50.732Z,29.44
2018-08-13T14:00:50.751Z,29.20
2018-08-13T14:15:50.277Z,29.04
2018-08-13T14:30:53.208Z,28.76
2018-08-13T14:45:51.139Z,28.48
2018-08-13T15:00:51.190Z,28.29
2018-08-13T15:15:50.604Z,28.15
2018-08-13T15:30:57.767Z,27.99
2018-08-13T15:45:50.484Z,27.87
2018-08-13T16:00:50.488Z,27.75
2018-08-13T16:15:50.969Z,27.63
2018-08-13T16:30:50.924Z,27.47
2018-08-13T16:45:50.913Z,27.24
2018-08-13T17:00:50.841Z,27.12
2018-08-13T17:15:50.375Z,27.02
2018-08-13T17:30:52.371Z,26.56
2018-08-13T17:45:50.203Z,26.10
2018-08-13T18:00:50.275Z,26.55
2018-08-13T18:15:50.495Z,25.53
2018-08-13T18:30:50.461Z,24.93
2018-08-13T18:45:49.974Z,25.37
2018-08-13T19:00:53.820Z,25.24
2018-08-13T19:15:51.065Z,24.74
2018-08-13T19:30:50.926Z,24.80
2018-08-13T19:45:51.576Z,24.69
2018-08-13T20:00:52.651Z,24.35
2018-08-13T20:15:54.013Z,24.27
2018-08-13T20:45:51.248Z,25.12
2018-08-13T21:00:53.533Z,25.43
2018-08-13T21:15:51.241Z,25.44
2018-08-13T21:30:50.739Z,25.46
2018-08-13T22:00:55.969Z,25.40
2018-08-13T22:15:51.091Z,25.34
2018-08-13T22:30:51.606Z,25.34
2018-08-13T22:45:51.551Z,25.28
2018-08-13T23:00:51.114Z,25.22
2018-08-13T23:15:50.454Z,25.15
2018-08-13T23:30:49.426Z,25.10
2018-08-13T23:45:50.524Z,25.07
